sensor_id;sensor_type;location;lat;lon;timestamp;P1;durP1;ratioP1;P2;durP2;ratioP2
25263;SDS011;13211;51.796;5.808;2022-12-18T00:01:58;86.00;;;31.63;;
25263;SDS011;13211;51.796;5.808;2022-12-18T00:04:26;88.32;;;31.15;;
25263;SDS011;13211;51.796;5.808;2022-12-18T00:06:54;85.22;;;31.40;;
25263;SDS011;13211;51.796;5.808;2022-12-18T00:09:22;85.43;;;31.13;;
25263;SDS011;13211;51.796;5.808;2022-12-18T00:11:50;96.40;;;32.28;;
25263;SDS011;13211;51.796;5.808;2022-12-18T00:14:18;83.90;;;31.25;;
25263;SDS011;13211;51.796;5.808;2022-12-18T00:16:45;90.85;;;31.13;;
25263;SDS011;13211;51.796;5.808;2022-12-18T00:19:14;84.13;;;31.15;;
25263;SDS011;13211;51.796;5.808;2022-12-18T00:21:41;80.32;;;28.85;;
25263;SDS011;13211;51.796;5.808;2022-12-18T00:24:10;79.85;;;28.00;;
25263;SDS011;13211;51.796;5.808;2022-12-18T00:26:38;81.55;;;29.63;;
25263;SDS011;13211;51.796;5.808;2022-12-18T00:29:15;84.10;;;29.38;;
25263;SDS011;13211;51.796;5.808;2022-12-18T00:31:45;87.45;;;30.17;;
25263;SDS011;13211;51.796;5.808;2022-12-18T00:34:13;80.78;;;28.30;;
25263;SDS011;13211;51.796;5.808;2022-12-18T00:36:41;75.05;;;28.02;;
25263;SDS011;13211;51.796;5.808;2022-12-18T00:39:09;78.85;;;27.77;;
25263;SDS011;13211;51.796;5.808;2022-12-18T00:41:38;70.70;;;28.20;;
25263;SDS011;13211;51.796;5.808;2022-12-18T00:44:24;71.38;;;26.55;;
25263;SDS011;13211;51.796;5.808;2022-12-18T00:46:52;75.07;;;27.80;;
25263;SDS011;13211;51.796;5.808;2022-12-18T00:49:20;72.63;;;26.83;;
25263;SDS011;13211;51.796;5.808;2022-12-18T00:51:48;69.93;;;27.05;;
25263;SDS011;13211;51.796;5.808;2022-12-18T00:54:16;65.43;;;24.40;;
25263;SDS011;13211;51.796;5.808;2022-12-18T00:56:44;66.55;;;25.73;;
25263;SDS011;13211;51.796;5.808;2022-12-18T00:59:19;58.83;;;24.63;;
25263;SDS011;13211;51.796;5.808;2022-12-18T01:03:33;65.03;;;24.73;;
25263;SDS011;13211;51.796;5.808;2022-12-18T01:06:05;64.72;;;25.15;;
25263;SDS011;13211;51.796;5.808;2022-12-18T01:08:34;69.38;;;25.23;;
25263;SDS011;13211;51.796;5.808;2022-12-18T01:11:09;64.80;;;24.55;;
25263;SDS011;13211;51.796;5.808;2022-12-18T01:13:37;63.65;;;24.90;;
25263;SDS011;13211;51.796;5.808;2022-12-18T01:16:06;64.43;;;24.45;;
25263;SDS011;13211;51.796;5.808;2022-12-18T01:18:34;65.68;;;25.92;;
25263;SDS011;13211;51.796;5.808;2022-12-18T01:21:05;61.72;;;23.52;;
25263;SDS011;13211;51.796;5.808;2022-12-18T01:23:35;62.38;;;24.38;;
25263;SDS011;13211;51.796;5.808;2022-12-18T01:26:04;60.42;;;23.75;;
25263;SDS011;13211;51.796;5.808;2022-12-18T01:28:34;62.83;;;24.13;;
25263;SDS011;13211;51.796;5.808;2022-12-18T01:33:37;63.90;;;23.23;;
25263;SDS011;13211;51.796;5.808;2022-12-18T01:36:05;61.15;;;23.67;;
25263;SDS011;13211;51.796;5.808;2022-12-18T01:38:33;54.20;;;22.52;;
25263;SDS011;13211;51.796;5.808;2022-12-18T01:41:01;60.65;;;24.55;;
25263;SDS011;13211;51.796;5.808;2022-12-18T01:43:46;58.85;;;21.63;;
25263;SDS011;13211;51.796;5.808;2022-12-18T01:46:15;62.90;;;23.40;;
25263;SDS011;13211;51.796;5.808;2022-12-18T01:48:44;59.28;;;23.17;;
25263;SDS011;13211;51.796;5.808;2022-12-18T01:51:13;55.28;;;23.15;;
25263;SDS011;13211;51.796;5.808;2022-12-18T01:53:41;59.35;;;23.33;;
25263;SDS011;13211;51.796;5.808;2022-12-18T01:56:11;47.80;;;20.83;;
25263;SDS011;13211;51.796;5.808;2022-12-18T01:58:48;53.92;;;22.95;;
25263;SDS011;13211;51.796;5.808;2022-12-18T02:01:20;51.47;;;22.27;;
25263;SDS011;13211;51.796;5.808;2022-12-18T02:03:49;61.00;;;22.50;;
25263;SDS011;13211;51.796;5.808;2022-12-18T02:06:39;50.03;;;20.20;;
25263;SDS011;13211;51.796;5.808;2022-12-18T02:09:09;55.33;;;21.48;;
25263;SDS011;13211;51.796;5.808;2022-12-18T02:17:06;58.03;;;21.52;;
25263;SDS011;13211;51.796;5.808;2022-12-18T02:30:12;46.13;;;18.77;;
25263;SDS011;13211;51.796;5.808;2022-12-18T02:32:38;49.17;;;19.05;;
25263;SDS011;13211;51.796;5.808;2022-12-18T02:35:13;48.72;;;19.85;;
25263;SDS011;13211;51.796;5.808;2022-12-18T02:37:43;58.10;;;21.42;;
25263;SDS011;13211;51.796;5.808;2022-12-18T02:40:14;46.72;;;19.23;;
25263;SDS011;13211;51.796;5.808;2022-12-18T02:42:43;45.63;;;19.25;;
25263;SDS011;13211;51.796;5.808;2022-12-18T02:45:14;49.95;;;19.48;;
25263;SDS011;13211;51.796;5.808;2022-12-18T02:47:43;53.97;;;20.20;;
25263;SDS011;13211;51.796;5.808;2022-12-18T02:50:18;51.10;;;20.23;;
25263;SDS011;13211;51.796;5.808;2022-12-18T03:00:52;44.83;;;18.25;;
25263;SDS011;13211;51.796;5.808;2022-12-18T03:06:02;40.70;;;17.15;;
25263;SDS011;13211;51.796;5.808;2022-12-18T03:08:34;45.10;;;18.88;;
25263;SDS011;13211;51.796;5.808;2022-12-18T03:11:05;45.60;;;18.55;;
25263;SDS011;13211;51.796;5.808;2022-12-18T03:16:02;50.47;;;17.42;;
25263;SDS011;13211;51.796;5.808;2022-12-18T03:18:35;44.83;;;18.83;;
25263;SDS011;13211;51.796;5.808;2022-12-18T03:21:04;43.47;;;18.20;;
25263;SDS011;13211;51.796;5.808;2022-12-18T03:23:36;40.78;;;17.30;;
25263;SDS011;13211;51.796;5.808;2022-12-18T03:26:10;39.33;;;17.65;;
25263;SDS011;13211;51.796;5.808;2022-12-18T03:28:42;38.30;;;17.38;;
25263;SDS011;13211;51.796;5.808;2022-12-18T03:31:11;40.78;;;17.00;;
25263;SDS011;13211;51.796;5.808;2022-12-18T03:33:42;41.70;;;17.88;;
25263;SDS011;13211;51.796;5.808;2022-12-18T03:36:14;46.63;;;18.30;;
25263;SDS011;13211;51.796;5.808;2022-12-18T03:38:42;43.67;;;17.48;;
25263;SDS011;13211;51.796;5.808;2022-12-18T03:41:18;37.38;;;16.20;;
25263;SDS011;13211;51.796;5.808;2022-12-18T03:44:14;41.42;;;16.65;;
25263;SDS011;13211;51.796;5.808;2022-12-18T03:49:51;41.03;;;16.73;;
25263;SDS011;13211;51.796;5.808;2022-12-18T03:52:16;36.60;;;15.57;;
25263;SDS011;13211;51.796;5.808;2022-12-18T03:54:48;40.08;;;16.08;;
25263;SDS011;13211;51.796;5.808;2022-12-18T03:57:17;38.65;;;16.17;;
25263;SDS011;13211;51.796;5.808;2022-12-18T03:59:49;45.85;;;16.45;;
25263;SDS011;13211;51.796;5.808;2022-12-18T04:02:21;38.42;;;15.48;;
25263;SDS011;13211;51.796;5.808;2022-12-18T04:04:51;40.05;;;16.75;;
25263;SDS011;13211;51.796;5.808;2022-12-18T04:07:20;38.85;;;16.17;;
25263;SDS011;13211;51.796;5.808;2022-12-18T04:09:50;33.90;;;14.93;;
25263;SDS011;13211;51.796;5.808;2022-12-18T04:12:26;34.20;;;15.50;;
25263;SDS011;13211;51.796;5.808;2022-12-18T04:14:55;36.28;;;15.45;;
25263;SDS011;13211;51.796;5.808;2022-12-18T04:17:23;38.35;;;15.48;;
25263;SDS011;13211;51.796;5.808;2022-12-18T04:19:51;38.60;;;15.80;;
25263;SDS011;13211;51.796;5.808;2022-12-18T04:22:20;37.60;;;15.85;;
25263;SDS011;13211;51.796;5.808;2022-12-18T04:24:52;36.67;;;15.32;;
25263;SDS011;13211;51.796;5.808;2022-12-18T04:27:28;34.15;;;14.57;;
25263;SDS011;13211;51.796;5.808;2022-12-18T04:29:58;33.30;;;15.25;;
25263;SDS011;13211;51.796;5.808;2022-12-18T04:32:26;36.67;;;15.63;;
25263;SDS011;13211;51.796;5.808;2022-12-18T04:34:54;43.95;;;15.18;;
25263;SDS011;13211;51.796;5.808;2022-12-18T04:37:22;36.92;;;15.15;;
25263;SDS011;13211;51.796;5.808;2022-12-18T04:39:50;35.90;;;15.07;;
25263;SDS011;13211;51.796;5.808;2022-12-18T04:42:26;34.08;;;14.07;;
25263;SDS011;13211;51.796;5.808;2022-12-18T04:44:53;36.72;;;15.02;;
25263;SDS011;13211;51.796;5.808;2022-12-18T04:47:21;35.88;;;15.13;;
25263;SDS011;13211;51.796;5.808;2022-12-18T04:49:49;35.33;;;15.05;;
25263;SDS011;13211;51.796;5.808;2022-12-18T04:52:16;32.92;;;14.85;;
25263;SDS011;13211;51.796;5.808;2022-12-18T04:54:45;40.85;;;15.07;;
25263;SDS011;13211;51.796;5.808;2022-12-18T04:59:44;37.38;;;13.52;;
25263;SDS011;13211;51.796;5.808;2022-12-18T05:02:12;37.05;;;15.45;;
25263;SDS011;13211;51.796;5.808;2022-12-18T05:04:39;36.60;;;15.50;;
25263;SDS011;13211;51.796;5.808;2022-12-18T05:07:07;30.95;;;15.00;;
25263;SDS011;13211;51.796;5.808;2022-12-18T05:09:35;35.25;;;14.57;;
25263;SDS011;13211;51.796;5.808;2022-12-18T05:12:02;39.17;;;14.73;;
25263;SDS011;13211;51.796;5.808;2022-12-18T05:14:30;36.72;;;15.48;;
25263;SDS011;13211;51.796;5.808;2022-12-18T05:16:57;33.53;;;14.02;;
25263;SDS011;13211;51.796;5.808;2022-12-18T05:19:26;35.63;;;15.70;;
25263;SDS011;13211;51.796;5.808;2022-12-18T05:21:54;34.60;;;14.27;;
25263;SDS011;13211;51.796;5.808;2022-12-18T05:24:22;40.20;;;15.13;;
25263;SDS011;13211;51.796;5.808;2022-12-18T05:26:49;36.15;;;15.57;;
25263;SDS011;13211;51.796;5.808;2022-12-18T05:29:17;38.88;;;15.82;;
25263;SDS011;13211;51.796;5.808;2022-12-18T05:31:45;35.90;;;14.45;;
25263;SDS011;13211;51.796;5.808;2022-12-18T05:34:14;31.30;;;14.60;;
25263;SDS011;13211;51.796;5.808;2022-12-18T05:36:42;34.22;;;15.88;;
25263;SDS011;13211;51.796;5.808;2022-12-18T05:39:10;36.38;;;14.75;;
25263;SDS011;13211;51.796;5.808;2022-12-18T05:41:37;36.20;;;14.93;;
25263;SDS011;13211;51.796;5.808;2022-12-18T05:44:05;39.35;;;16.13;;
25263;SDS011;13211;51.796;5.808;2022-12-18T05:46:32;33.03;;;14.88;;
25263;SDS011;13211;51.796;5.808;2022-12-18T05:49:01;39.38;;;15.73;;
25263;SDS011;13211;51.796;5.808;2022-12-18T05:51:28;37.42;;;15.32;;
25263;SDS011;13211;51.796;5.808;2022-12-18T05:53:56;34.45;;;15.48;;
25263;SDS011;13211;51.796;5.808;2022-12-18T05:56:23;40.97;;;15.82;;
25263;SDS011;13211;51.796;5.808;2022-12-18T05:58:51;37.67;;;15.32;;
25263;SDS011;13211;51.796;5.808;2022-12-18T06:01:21;35.78;;;15.10;;
25263;SDS011;13211;51.796;5.808;2022-12-18T06:03:50;32.72;;;14.85;;
25263;SDS011;13211;51.796;5.808;2022-12-18T06:06:19;32.75;;;14.65;;
25263;SDS011;13211;51.796;5.808;2022-12-18T06:08:48;37.47;;;15.23;;
25263;SDS011;13211;51.796;5.808;2022-12-18T06:11:16;33.28;;;15.35;;
25263;SDS011;13211;51.796;5.808;2022-12-18T06:13:45;34.20;;;15.70;;
25263;SDS011;13211;51.796;5.808;2022-12-18T06:16:13;39.88;;;15.50;;
25263;SDS011;13211;51.796;5.808;2022-12-18T06:18:40;38.53;;;14.93;;
25263;SDS011;13211;51.796;5.808;2022-12-18T06:21:10;38.25;;;15.45;;
25263;SDS011;13211;51.796;5.808;2022-12-18T06:23:38;35.95;;;14.80;;
25263;SDS011;13211;51.796;5.808;2022-12-18T06:26:08;33.47;;;14.73;;
25263;SDS011;13211;51.796;5.808;2022-12-18T06:28:35;38.63;;;15.95;;
25263;SDS011;13211;51.796;5.808;2022-12-18T06:31:05;35.92;;;15.90;;
25263;SDS011;13211;51.796;5.808;2022-12-18T06:33:34;39.53;;;15.48;;
25263;SDS011;13211;51.796;5.808;2022-12-18T06:36:09;33.88;;;15.45;;
25263;SDS011;13211;51.796;5.808;2022-12-18T06:38:39;34.90;;;15.25;;
25263;SDS011;13211;51.796;5.808;2022-12-18T06:41:16;35.15;;;16.42;;
25263;SDS011;13211;51.796;5.808;2022-12-18T06:43:45;37.88;;;15.23;;
25263;SDS011;13211;51.796;5.808;2022-12-18T06:46:13;31.15;;;14.50;;
25263;SDS011;13211;51.796;5.808;2022-12-18T06:48:41;31.95;;;13.70;;
25263;SDS011;13211;51.796;5.808;2022-12-18T06:51:08;32.53;;;14.90;;
25263;SDS011;13211;51.796;5.808;2022-12-18T06:53:36;45.35;;;15.10;;
25263;SDS011;13211;51.796;5.808;2022-12-18T06:56:05;34.80;;;15.52;;
25263;SDS011;13211;51.796;5.808;2022-12-18T06:58:36;32.13;;;14.50;;
25263;SDS011;13211;51.796;5.808;2022-12-18T07:01:05;33.92;;;14.13;;
25263;SDS011;13211;51.796;5.808;2022-12-18T07:03:33;34.13;;;14.75;;
25263;SDS011;13211;51.796;5.808;2022-12-18T07:06:01;38.38;;;15.00;;
25263;SDS011;13211;51.796;5.808;2022-12-18T07:08:29;32.75;;;14.82;;
25263;SDS011;13211;51.796;5.808;2022-12-18T07:10:57;40.33;;;15.00;;
25263;SDS011;13211;51.796;5.808;2022-12-18T07:13:25;34.50;;;15.95;;
25263;SDS011;13211;51.796;5.808;2022-12-18T07:15:53;32.67;;;14.90;;
25263;SDS011;13211;51.796;5.808;2022-12-18T07:18:20;35.22;;;15.43;;
25263;SDS011;13211;51.796;5.808;2022-12-18T07:20:49;35.22;;;15.27;;
25263;SDS011;13211;51.796;5.808;2022-12-18T07:23:17;32.45;;;14.90;;
25263;SDS011;13211;51.796;5.808;2022-12-18T07:25:46;34.67;;;14.73;;
25263;SDS011;13211;51.796;5.808;2022-12-18T07:28:15;37.50;;;15.75;;
25263;SDS011;13211;51.796;5.808;2022-12-18T07:30:43;34.55;;;14.60;;
25263;SDS011;13211;51.796;5.808;2022-12-18T07:33:10;34.03;;;15.07;;
25263;SDS011;13211;51.796;5.808;2022-12-18T07:35:38;31.77;;;14.63;;
25263;SDS011;13211;51.796;5.808;2022-12-18T07:38:05;29.92;;;15.05;;
25263;SDS011;13211;51.796;5.808;2022-12-18T07:40:33;34.65;;;15.43;;
25263;SDS011;13211;51.796;5.808;2022-12-18T07:43:00;37.45;;;15.18;;
25263;SDS011;13211;51.796;5.808;2022-12-18T07:45:28;32.83;;;14.70;;
25263;SDS011;13211;51.796;5.808;2022-12-18T07:47:56;33.42;;;14.57;;
25263;SDS011;13211;51.796;5.808;2022-12-18T07:50:23;30.05;;;14.43;;
25263;SDS011;13211;51.796;5.808;2022-12-18T07:52:51;32.10;;;14.48;;
25263;SDS011;13211;51.796;5.808;2022-12-18T07:55:18;34.25;;;15.02;;
25263;SDS011;13211;51.796;5.808;2022-12-18T07:57:47;29.45;;;13.60;;
25263;SDS011;13211;51.796;5.808;2022-12-18T08:00:26;37.70;;;14.68;;
25263;SDS011;13211;51.796;5.808;2022-12-18T08:02:53;33.47;;;13.80;;
25263;SDS011;13211;51.796;5.808;2022-12-18T08:05:21;36.47;;;15.57;;
25263;SDS011;13211;51.796;5.808;2022-12-18T08:07:49;34.53;;;14.45;;
25263;SDS011;13211;51.796;5.808;2022-12-18T08:10:16;30.38;;;13.77;;
25263;SDS011;13211;51.796;5.808;2022-12-18T08:12:48;31.20;;;13.88;;
25263;SDS011;13211;51.796;5.808;2022-12-18T08:15:16;37.35;;;16.27;;
25263;SDS011;13211;51.796;5.808;2022-12-18T08:17:44;35.63;;;15.02;;
25263;SDS011;13211;51.796;5.808;2022-12-18T08:20:12;30.55;;;14.45;;
25263;SDS011;13211;51.796;5.808;2022-12-18T08:22:41;35.72;;;14.45;;
25263;SDS011;13211;51.796;5.808;2022-12-18T08:25:09;38.38;;;15.38;;
25263;SDS011;13211;51.796;5.808;2022-12-18T08:27:37;35.67;;;14.52;;
25263;SDS011;13211;51.796;5.808;2022-12-18T08:30:05;33.47;;;13.70;;
25263;SDS011;13211;51.796;5.808;2022-12-18T08:32:32;33.38;;;14.95;;
25263;SDS011;13211;51.796;5.808;2022-12-18T08:35:00;31.35;;;13.98;;
25263;SDS011;13211;51.796;5.808;2022-12-18T08:37:28;35.13;;;14.20;;
25263;SDS011;13211;51.796;5.808;2022-12-18T08:39:56;32.15;;;14.10;;
25263;SDS011;13211;51.796;5.808;2022-12-18T08:42:23;32.33;;;14.20;;
25263;SDS011;13211;51.796;5.808;2022-12-18T08:45:11;28.98;;;14.18;;
25263;SDS011;13211;51.796;5.808;2022-12-18T08:47:39;33.08;;;15.00;;
25263;SDS011;13211;51.796;5.808;2022-12-18T08:50:08;31.67;;;14.50;;
25263;SDS011;13211;51.796;5.808;2022-12-18T08:52:38;31.88;;;14.68;;
25263;SDS011;13211;51.796;5.808;2022-12-18T08:55:05;31.63;;;13.75;;
25263;SDS011;13211;51.796;5.808;2022-12-18T08:57:33;34.63;;;14.27;;
25263;SDS011;13211;51.796;5.808;2022-12-18T09:00:02;33.97;;;14.63;;
25263;SDS011;13211;51.796;5.808;2022-12-18T09:02:30;32.20;;;14.50;;
25263;SDS011;13211;51.796;5.808;2022-12-18T09:04:59;32.38;;;13.90;;
25263;SDS011;13211;51.796;5.808;2022-12-18T09:07:26;33.22;;;14.35;;
25263;SDS011;13211;51.796;5.808;2022-12-18T09:09:54;33.40;;;14.32;;
25263;SDS011;13211;51.796;5.808;2022-12-18T09:12:22;33.75;;;14.48;;
25263;SDS011;13211;51.796;5.808;2022-12-18T09:14:50;35.92;;;15.68;;
25263;SDS011;13211;51.796;5.808;2022-12-18T09:17:18;34.25;;;14.05;;
25263;SDS011;13211;51.796;5.808;2022-12-18T09:19:46;33.05;;;14.77;;
25263;SDS011;13211;51.796;5.808;2022-12-18T09:22:14;30.67;;;14.05;;
25263;SDS011;13211;51.796;5.808;2022-12-18T09:24:43;33.15;;;13.93;;
25263;SDS011;13211;51.796;5.808;2022-12-18T09:27:11;32.20;;;14.32;;
25263;SDS011;13211;51.796;5.808;2022-12-18T09:29:38;35.28;;;15.18;;
25263;SDS011;13211;51.796;5.808;2022-12-18T09:32:06;32.08;;;14.15;;
25263;SDS011;13211;51.796;5.808;2022-12-18T09:34:34;37.45;;;14.52;;
25263;SDS011;13211;51.796;5.808;2022-12-18T09:37:01;34.83;;;14.68;;
25263;SDS011;13211;51.796;5.808;2022-12-18T09:39:29;30.63;;;14.20;;
25263;SDS011;13211;51.796;5.808;2022-12-18T09:41:57;33.50;;;13.63;;
25263;SDS011;13211;51.796;5.808;2022-12-18T09:49:25;29.40;;;13.13;;
25263;SDS011;13211;51.796;5.808;2022-12-18T09:52:16;35.35;;;13.45;;
25263;SDS011;13211;51.796;5.808;2022-12-18T09:54:42;27.00;;;12.93;;
25263;SDS011;13211;51.796;5.808;2022-12-18T09:57:13;29.50;;;12.48;;
25263;SDS011;13211;51.796;5.808;2022-12-18T09:59:42;32.28;;;13.95;;
25263;SDS011;13211;51.796;5.808;2022-12-18T10:02:14;36.15;;;14.75;;
25263;SDS011;13211;51.796;5.808;2022-12-18T10:04:45;31.98;;;14.88;;
25263;SDS011;13211;51.796;5.808;2022-12-18T10:07:20;38.25;;;17.00;;
25263;SDS011;13211;51.796;5.808;2022-12-18T10:10:04;66.82;;;23.67;;
25263;SDS011;13211;51.796;5.808;2022-12-18T10:12:47;44.05;;;19.60;;
25263;SDS011;13211;51.796;5.808;2022-12-18T10:17:51;29.38;;;13.50;;
25263;SDS011;13211;51.796;5.808;2022-12-18T10:26:13;33.65;;;14.80;;
25263;SDS011;13211;51.796;5.808;2022-12-18T10:28:42;29.23;;;12.82;;
25263;SDS011;13211;51.796;5.808;2022-12-18T10:33:43;27.67;;;13.20;;
25263;SDS011;13211;51.796;5.808;2022-12-18T10:36:11;34.75;;;15.52;;
25263;SDS011;13211;51.796;5.808;2022-12-18T10:38:39;32.55;;;14.48;;
25263;SDS011;13211;51.796;5.808;2022-12-18T10:43:50;36.08;;;19.33;;
25263;SDS011;13211;51.796;5.808;2022-12-18T10:46:49;37.05;;;21.85;;
25263;SDS011;13211;51.796;5.808;2022-12-18T10:49:24;25.65;;;12.73;;
25263;SDS011;13211;51.796;5.808;2022-12-18T10:52:16;30.70;;;13.75;;
25263;SDS011;13211;51.796;5.808;2022-12-18T10:54:52;31.88;;;13.00;;
25263;SDS011;13211;51.796;5.808;2022-12-18T10:57:30;32.05;;;13.75;;
25263;SDS011;13211;51.796;5.808;2022-12-18T10:59:59;33.47;;;14.07;;
25263;SDS011;13211;51.796;5.808;2022-12-18T11:02:48;27.80;;;13.50;;
25263;SDS011;13211;51.796;5.808;2022-12-18T11:07:54;30.00;;;13.95;;
25263;SDS011;13211;51.796;5.808;2022-12-18T11:10:25;29.63;;;14.30;;
25263;SDS011;13211;51.796;5.808;2022-12-18T11:15:50;28.80;;;13.18;;
25263;SDS011;13211;51.796;5.808;2022-12-18T11:21:05;29.35;;;13.60;;
25263;SDS011;13211;51.796;5.808;2022-12-18T11:23:36;28.95;;;13.07;;
25263;SDS011;13211;51.796;5.808;2022-12-18T11:26:36;28.58;;;13.38;;
25263;SDS011;13211;51.796;5.808;2022-12-18T11:29:09;30.58;;;12.85;;
25263;SDS011;13211;51.796;5.808;2022-12-18T11:31:46;34.00;;;14.43;;
25263;SDS011;13211;51.796;5.808;2022-12-18T11:34:22;34.83;;;18.25;;
25263;SDS011;13211;51.796;5.808;2022-12-18T11:36:55;31.73;;;15.82;;
25263;SDS011;13211;51.796;5.808;2022-12-18T11:39:46;29.75;;;16.65;;
25263;SDS011;13211;51.796;5.808;2022-12-18T11:42:20;32.13;;;14.43;;
25263;SDS011;13211;51.796;5.808;2022-12-18T11:52:52;29.85;;;14.35;;
25263;SDS011;13211;51.796;5.808;2022-12-18T11:55:47;35.13;;;14.18;;
25263;SDS011;13211;51.796;5.808;2022-12-18T11:58:24;30.67;;;14.18;;
25263;SDS011;13211;51.796;5.808;2022-12-18T12:01:01;31.40;;;14.82;;
25263;SDS011;13211;51.796;5.808;2022-12-18T12:09:31;28.77;;;13.40;;
25263;SDS011;13211;51.796;5.808;2022-12-18T12:29:09;30.40;;;14.25;;
25263;SDS011;13211;51.796;5.808;2022-12-18T12:40:26;31.73;;;15.50;;
25263;SDS011;13211;51.796;5.808;2022-12-18T12:46:04;29.50;;;15.10;;
25263;SDS011;13211;51.796;5.808;2022-12-18T12:51:23;29.63;;;14.15;;
25263;SDS011;13211;51.796;5.808;2022-12-18T12:53:54;30.65;;;14.38;;
25263;SDS011;13211;51.796;5.808;2022-12-18T12:56:24;37.50;;;17.98;;
25263;SDS011;13211;51.796;5.808;2022-12-18T13:02:51;45.58;;;20.70;;
25263;SDS011;13211;51.796;5.808;2022-12-18T13:07:39;38.13;;;17.90;;
25263;SDS011;13211;51.796;5.808;2022-12-18T13:13:08;58.78;;;28.05;;
25263;SDS011;13211;51.796;5.808;2022-12-18T13:15:43;52.72;;;23.98;;
25263;SDS011;13211;51.796;5.808;2022-12-18T13:18:17;31.90;;;15.63;;
25263;SDS011;13211;51.796;5.808;2022-12-18T13:20:47;37.05;;;16.67;;
25263;SDS011;13211;51.796;5.808;2022-12-18T13:23:30;34.95;;;16.95;;
25263;SDS011;13211;51.796;5.808;2022-12-18T13:32:00;36.95;;;15.15;;
25263;SDS011;13211;51.796;5.808;2022-12-18T13:34:18;34.17;;;14.82;;
25263;SDS011;13211;51.796;5.808;2022-12-18T13:36:54;29.65;;;15.07;;
25263;SDS011;13211;51.796;5.808;2022-12-18T13:39:32;35.03;;;16.20;;
25263;SDS011;13211;51.796;5.808;2022-12-18T13:49:54;31.15;;;14.57;;
25263;SDS011;13211;51.796;5.808;2022-12-18T13:52:28;36.28;;;16.92;;
25263;SDS011;13211;51.796;5.808;2022-12-18T13:55:04;32.37;;;14.40;;
25263;SDS011;13211;51.796;5.808;2022-12-18T13:57:38;34.05;;;15.35;;
25263;SDS011;13211;51.796;5.808;2022-12-18T14:02:55;35.15;;;14.70;;
25263;SDS011;13211;51.796;5.808;2022-12-18T14:05:28;38.58;;;15.45;;
25263;SDS011;13211;51.796;5.808;2022-12-18T14:08:06;39.25;;;15.93;;
25263;SDS011;13211;51.796;5.808;2022-12-18T14:10:41;32.63;;;14.40;;
25263;SDS011;13211;51.796;5.808;2022-12-18T14:13:23;35.10;;;15.55;;
25263;SDS011;13211;51.796;5.808;2022-12-18T14:15:54;37.80;;;15.43;;
25263;SDS011;13211;51.796;5.808;2022-12-18T14:18:43;30.25;;;15.38;;
25263;SDS011;13211;51.796;5.808;2022-12-18T14:21:45;32.20;;;15.15;;
25263;SDS011;13211;51.796;5.808;2022-12-18T14:24:17;34.10;;;15.27;;
25263;SDS011;13211;51.796;5.808;2022-12-18T14:26:47;31.80;;;15.48;;
25263;SDS011;13211;51.796;5.808;2022-12-18T14:32:15;32.97;;;15.82;;
25263;SDS011;13211;51.796;5.808;2022-12-18T14:34:49;48.58;;;22.52;;
25263;SDS011;13211;51.796;5.808;2022-12-18T14:37:22;32.63;;;16.15;;
25263;SDS011;13211;51.796;5.808;2022-12-18T14:39:56;35.08;;;16.73;;
25263;SDS011;13211;51.796;5.808;2022-12-18T14:42:29;31.98;;;15.88;;
25263;SDS011;13211;51.796;5.808;2022-12-18T14:50:40;38.92;;;16.80;;
25263;SDS011;13211;51.796;5.808;2022-12-18T14:53:22;36.40;;;17.58;;
25263;SDS011;13211;51.796;5.808;2022-12-18T14:55:56;30.33;;;15.13;;
25263;SDS011;13211;51.796;5.808;2022-12-18T14:58:24;33.45;;;16.35;;
25263;SDS011;13211;51.796;5.808;2022-12-18T15:00:54;39.40;;;15.63;;
25263;SDS011;13211;51.796;5.808;2022-12-18T15:03:22;33.03;;;15.32;;
25263;SDS011;13211;51.796;5.808;2022-12-18T15:05:50;37.00;;;15.18;;
25263;SDS011;13211;51.796;5.808;2022-12-18T15:08:28;34.33;;;15.35;;
25263;SDS011;13211;51.796;5.808;2022-12-18T15:11:22;31.52;;;14.68;;
25263;SDS011;13211;51.796;5.808;2022-12-18T15:17:21;38.13;;;16.83;;
25263;SDS011;13211;51.796;5.808;2022-12-18T15:19:53;39.67;;;16.42;;
25263;SDS011;13211;51.796;5.808;2022-12-18T15:22:36;36.15;;;16.55;;
25263;SDS011;13211;51.796;5.808;2022-12-18T15:25:21;40.80;;;17.75;;
25263;SDS011;13211;51.796;5.808;2022-12-18T15:28:00;34.72;;;16.63;;
25263;SDS011;13211;51.796;5.808;2022-12-18T15:30:28;40.90;;;17.45;;
25263;SDS011;13211;51.796;5.808;2022-12-18T15:35:59;39.70;;;16.55;;
25263;SDS011;13211;51.796;5.808;2022-12-18T15:38:29;41.35;;;15.93;;
25263;SDS011;13211;51.796;5.808;2022-12-18T15:40:57;41.05;;;16.92;;
25263;SDS011;13211;51.796;5.808;2022-12-18T15:43:25;36.97;;;17.05;;
25263;SDS011;13211;51.796;5.808;2022-12-18T15:46:04;40.13;;;17.80;;
25263;SDS011;13211;51.796;5.808;2022-12-18T15:48:47;42.97;;;17.63;;
25263;SDS011;13211;51.796;5.808;2022-12-18T15:51:19;37.80;;;17.30;;
25263;SDS011;13211;51.796;5.808;2022-12-18T15:54:02;45.78;;;18.48;;
25263;SDS011;13211;51.796;5.808;2022-12-18T15:56:32;40.25;;;17.13;;
25263;SDS011;13211;51.796;5.808;2022-12-18T15:59:19;46.17;;;17.92;;
25263;SDS011;13211;51.796;5.808;2022-12-18T16:01:49;40.92;;;18.27;;
25263;SDS011;13211;51.796;5.808;2022-12-18T16:04:31;39.97;;;18.50;;
25263;SDS011;13211;51.796;5.808;2022-12-18T16:07:02;42.28;;;17.98;;
25263;SDS011;13211;51.796;5.808;2022-12-18T16:09:49;45.60;;;20.77;;
25263;SDS011;13211;51.796;5.808;2022-12-18T16:12:19;45.90;;;18.85;;
25263;SDS011;13211;51.796;5.808;2022-12-18T16:14:48;43.95;;;19.27;;
25263;SDS011;13211;51.796;5.808;2022-12-18T16:17:16;43.63;;;19.23;;
25263;SDS011;13211;51.796;5.808;2022-12-18T16:19:48;43.55;;;18.85;;
25263;SDS011;13211;51.796;5.808;2022-12-18T16:22:17;50.20;;;19.30;;
25263;SDS011;13211;51.796;5.808;2022-12-18T16:24:51;45.38;;;19.35;;
25263;SDS011;13211;51.796;5.808;2022-12-18T16:27:20;45.40;;;19.98;;
25263;SDS011;13211;51.796;5.808;2022-12-18T16:29:48;46.28;;;20.05;;
25263;SDS011;13211;51.796;5.808;2022-12-18T16:32:20;44.05;;;20.27;;
25263;SDS011;13211;51.796;5.808;2022-12-18T16:34:49;45.30;;;20.08;;
25263;SDS011;13211;51.796;5.808;2022-12-18T16:37:16;43.17;;;19.40;;
25263;SDS011;13211;51.796;5.808;2022-12-18T16:39:45;45.17;;;19.35;;
25263;SDS011;13211;51.796;5.808;2022-12-18T16:42:15;46.50;;;19.73;;
25263;SDS011;13211;51.796;5.808;2022-12-18T16:44:46;43.95;;;20.08;;
25263;SDS011;13211;51.796;5.808;2022-12-18T16:47:16;47.05;;;20.52;;
25263;SDS011;13211;51.796;5.808;2022-12-18T16:49:44;51.97;;;21.33;;
25263;SDS011;13211;51.796;5.808;2022-12-18T16:52:14;46.92;;;21.30;;
25263;SDS011;13211;51.796;5.808;2022-12-18T16:54:43;42.22;;;20.05;;
25263;SDS011;13211;51.796;5.808;2022-12-18T16:57:12;46.25;;;19.25;;
25263;SDS011;13211;51.796;5.808;2022-12-18T16:59:41;51.13;;;21.27;;
25263;SDS011;13211;51.796;5.808;2022-12-18T17:02:13;49.28;;;21.00;;
25263;SDS011;13211;51.796;5.808;2022-12-18T17:04:51;45.33;;;19.33;;
25263;SDS011;13211;51.796;5.808;2022-12-18T17:07:20;50.30;;;20.80;;
25263;SDS011;13211;51.796;5.808;2022-12-18T17:09:48;55.03;;;20.88;;
25263;SDS011;13211;51.796;5.808;2022-12-18T17:12:19;47.45;;;20.25;;
25263;SDS011;13211;51.796;5.808;2022-12-18T17:14:50;48.13;;;20.67;;
25263;SDS011;13211;51.796;5.808;2022-12-18T17:17:19;47.83;;;21.30;;